sensor_id;sensor_type;location;lat;lon;timestamp;pressure;altitude;pressure_sealevel;temperature;humidity
82458;BME280;72081;48.870;11.074;2023-12-20T00:01:19;97201.00;;;1.07;95.22
82458;BME280;72081;48.870;11.074;2023-12-20T00:03:44;97187.53;;;1.10;95.95
82458;BME280;72081;48.870;11.074;2023-12-20T00:06:09;97197.69;;;1.13;95.97
82458;BME280;72081;48.870;11.074;2023-12-20T00:08:35;97188.00;;;1.13;96.54
82458;BME280;72081;48.870;11.074;2023-12-20T00:11:00;97192.59;;;1.11;96.70
82458;BME280;72081;48.870;11.074;2023-12-20T00:13:25;97196.03;;;1.12;96.93
82458;BME280;72081;48.870;11.074;2023-12-20T00:15:50;97174.38;;;1.10;97.65
82458;BME280;72081;48.870;11.074;2023-12-20T00:18:16;97184.88;;;1.10;97.81
82458;BME280;72081;48.870;11.074;2023-12-20T00:20:41;97184.25;;;1.08;98.01
82458;BME280;72081;48.870;11.074;2023-12-20T00:23:06;97191.97;;;1.09;98.88
82458;BME280;72081;48.870;11.074;2023-12-20T00:25:33;97164.84;;;1.17;100.00
82458;BME280;72081;48.870;11.074;2023-12-20T00:27:58;97166.66;;;1.16;100.00
82458;BME280;72081;48.870;11.074;2023-12-20T00:30:23;97177.66;;;1.12;100.00
82458;BME280;72081;48.870;11.074;2023-12-20T00:32:49;97175.19;;;1.10;99.74
82458;BME280;72081;48.870;11.074;2023-12-20T00:35:14;97172.22;;;1.13;100.00
82458;BME280;72081;48.870;11.074;2023-12-20T00:37:40;97170.91;;;1.17;100.00
82458;BME280;72081;48.870;11.074;2023-12-20T00:40:06;97162.22;;;1.17;100.00
82458;BME280;72081;48.870;11.074;2023-12-20T00:42:31;97157.28;;;1.14;100.00
82458;BME280;72081;48.870;11.074;2023-12-20T00:44:58;97148.91;;;1.18;100.00
82458;BME280;72081;48.870;11.074;2023-12-20T00:47:23;97158.75;;;1.16;100.00
82458;BME280;72081;48.870;11.074;2023-12-20T00:49:49;97146.75;;;1.14;100.00
82458;BME280;72081;48.870;11.074;2023-12-20T00:52:14;97136.25;;;1.14;100.00
82458;BME280;72081;48.870;11.074;2023-12-20T00:54:39;97146.75;;;1.14;100.00
82458;BME280;72081;48.870;11.074;2023-12-20T00:57:05;97146.59;;;1.15;100.00
82458;BME280;72081;48.870;11.074;2023-12-20T01:00:53;97143.66;;;1.10;100.00
82458;BME280;72081;48.870;11.074;2023-12-20T01:03:18;97151.56;;;1.10;100.00
82458;BME280;72081;48.870;11.074;2023-12-20T01:05:44;97151.19;;;1.13;100.00
82458;BME280;72081;48.870;11.074;2023-12-20T01:08:09;97157.78;;;1.17;100.00
82458;BME280;72081;48.870;11.074;2023-12-20T01:10:34;97161.22;;;1.18;100.00
82458;BME280;72081;48.870;11.074;2023-12-20T01:12:59;97162.34;;;1.15;100.00
82458;BME280;72081;48.870;11.074;2023-12-20T01:15:25;97154.47;;;1.15;100.00
82458;BME280;72081;48.870;11.074;2023-12-20T01:17:51;97164.13;;;1.23;100.00
82458;BME280;72081;48.870;11.074;2023-12-20T01:20:16;97154.91;;;1.27;100.00
82458;BME280;72081;48.870;11.074;2023-12-20T01:22:42;97149.38;;;1.22;100.00
82458;BME280;72081;48.870;11.074;2023-12-20T01:25:08;97148.72;;;1.20;100.00
82458;BME280;72081;48.870;11.074;2023-12-20T01:27:33;97141.31;;;1.24;100.00
82458;BME280;72081;48.870;11.074;2023-12-20T01:29:59;97139.50;;;1.24;100.00
82458;BME280;72081;48.870;11.074;2023-12-20T01:32:24;97133.06;;;1.27;100.00
82458;BME280;72081;48.870;11.074;2023-12-20T01:34:49;97130.63;;;1.25;100.00
82458;BME280;72081;48.870;11.074;2023-12-20T01:37:15;97127.53;;;1.21;100.00
82458;BME280;72081;48.870;11.074;2023-12-20T01:39:40;97126.19;;;1.26;100.00
82458;BME280;72081;48.870;11.074;2023-12-20T01:42:05;97128.16;;;1.24;100.00
82458;BME280;72081;48.870;11.074;2023-12-20T01:44:31;97109.13;;;1.21;100.00
82458;BME280;72081;48.870;11.074;2023-12-20T01:46:56;97103.97;;;1.28;100.00
82458;BME280;72081;48.870;11.074;2023-12-20T01:49:22;97103.34;;;1.26;100.00
82458;BME280;72081;48.870;11.074;2023-12-20T01:51:48;97107.13;;;1.24;100.00
82458;BME280;72081;48.870;11.074;2023-12-20T01:54:13;97100.88;;;1.25;100.00
82458;BME280;72081;48.870;11.074;2023-12-20T01:56:39;97099.72;;;1.27;100.00
82458;BME280;72081;48.870;11.074;2023-12-20T01:59:05;97109.41;;;1.27;100.00
82458;BME280;72081;48.870;11.074;2023-12-20T02:01:32;97109.41;;;1.27;100.00
82458;BME280;72081;48.870;11.074;2023-12-20T02:03:58;97117.28;;;1.27;100.00
82458;BME280;72081;48.870;11.074;2023-12-20T02:06:29;97124.19;;;1.28;100.00
82458;BME280;72081;48.870;11.074;2023-12-20T02:08:55;97119.09;;;1.26;100.00
82458;BME280;72081;48.870;11.074;2023-12-20T02:11:21;97108.41;;;1.28;100.00
82458;BME280;72081;48.870;11.074;2023-12-20T02:13:46;97111.22;;;1.26;100.00
82458;BME280;72081;48.870;11.074;2023-12-20T02:16:11;97102.16;;;1.29;100.00
82458;BME280;72081;48.870;11.074;2023-12-20T02:18:37;97108.88;;;1.31;100.00
82458;BME280;72081;48.870;11.074;2023-12-20T02:21:04;97100.53;;;1.28;100.00
82458;BME280;72081;48.870;11.074;2023-12-20T02:23:30;97111.03;;;1.28;100.00
82458;BME280;72081;48.870;11.074;2023-12-20T02:25:55;97104.16;;;1.27;100.00
82458;BME280;72081;48.870;11.074;2023-12-20T02:28:21;97100.88;;;1.25;100.00
82458;BME280;72081;48.870;11.074;2023-12-20T02:30:47;97103.50;;;1.25;100.00
82458;BME280;72081;48.870;11.074;2023-12-20T02:33:15;97093.66;;;1.27;100.00
82458;BME280;72081;48.870;11.074;2023-12-20T02:35:40;97097.09;;;1.27;100.00
82458;BME280;72081;48.870;11.074;2023-12-20T02:38:05;97102.34;;;1.27;100.00
82458;BME280;72081;48.870;11.074;2023-12-20T02:40:31;97102.53;;;1.26;100.00
82458;BME280;72081;48.870;11.074;2023-12-20T02:42:57;97097.09;;;1.27;100.00
82458;BME280;72081;48.870;11.074;2023-12-20T02:45:22;97094.28;;;1.29;100.00
82458;BME280;72081;48.870;11.074;2023-12-20T02:47:47;97099.53;;;1.29;100.00
82458;BME280;72081;48.870;11.074;2023-12-20T02:50:13;97093.66;;;1.27;100.00
82458;BME280;72081;48.870;11.074;2023-12-20T02:52:38;97093.47;;;1.28;100.00
82458;BME280;72081;48.870;11.074;2023-12-20T02:55:03;97091.00;;;1.27;100.00
82458;BME280;72081;48.870;11.074;2023-12-20T02:57:29;97083.78;;;1.29;100.00
82458;BME280;72081;48.870;11.074;2023-12-20T02:59:54;97084.59;;;1.29;100.00
82458;BME280;72081;48.870;11.074;2023-12-20T03:02:19;97082.13;;;1.28;100.00
82458;BME280;72081;48.870;11.074;2023-12-20T03:04:44;97087.56;;;1.26;100.00
82458;BME280;72081;48.870;11.074;2023-12-20T03:07:10;97102.16;;;1.29;100.00
82458;BME280;72081;48.870;11.074;2023-12-20T03:09:37;97101.34;;;1.28;100.00
82458;BME280;72081;48.870;11.074;2023-12-20T03:12:02;97090.03;;;1.28;100.00
82458;BME280;72081;48.870;11.074;2023-12-20T03:14:27;97096.72;;;1.30;100.00
82458;BME280;72081;48.870;11.074;2023-12-20T03:16:53;97095.91;;;1.30;100.00
82458;BME280;72081;48.870;11.074;2023-12-20T03:19:18;97110.88;;;1.29;100.00
82458;BME280;72081;48.870;11.074;2023-12-20T03:21:44;97097.91;;;1.28;100.00
82458;BME280;72081;48.870;11.074;2023-12-20T03:24:09;97103.81;;;1.30;100.00
82458;BME280;72081;48.870;11.074;2023-12-20T03:26:35;97113.31;;;1.31;100.00
82458;BME280;72081;48.870;11.074;2023-12-20T03:29:00;97104.97;;;1.27;100.00
82458;BME280;72081;48.870;11.074;2023-12-20T03:31:25;97103.63;;;1.31;100.00
82458;BME280;72081;48.870;11.074;2023-12-20T03:33:51;97108.66;;;1.41;100.00
82458;BME280;72081;48.870;11.074;2023-12-20T03:36:18;97112.56;;;1.45;100.00
82458;BME280;72081;48.870;11.074;2023-12-20T03:38:43;97111.22;;;1.49;100.00
82458;BME280;72081;48.870;11.074;2023-12-20T03:41:09;97107.03;;;1.63;100.00
82458;BME280;72081;48.870;11.074;2023-12-20T03:43:34;97108.47;;;1.65;100.00
82458;BME280;72081;48.870;11.074;2023-12-20T03:45:59;97110.56;;;1.70;100.00
82458;BME280;72081;48.870;11.074;2023-12-20T03:49:43;97109.25;;;1.74;100.00
82458;BME280;72081;48.870;11.074;2023-12-20T03:52:08;97098.53;;;1.75;100.00
82458;BME280;72081;48.870;11.074;2023-12-20T03:54:35;97099.38;;;1.76;100.00
82458;BME280;72081;48.870;11.074;2023-12-20T03:57:00;97105.09;;;1.79;100.00
82458;BME280;72081;48.870;11.074;2023-12-20T03:59:25;97092.66;;;1.88;100.00
82458;BME280;72081;48.870;11.074;2023-12-20T04:01:51;97097.47;;;1.85;100.00
82458;BME280;72081;48.870;11.074;2023-12-20T04:04:16;97091.03;;;1.87;100.00
82458;BME280;72081;48.870;11.074;2023-12-20T04:06:41;97104.00;;;1.89;100.00
82458;BME280;72081;48.870;11.074;2023-12-20T04:09:07;97100.56;;;1.88;100.00
82458;BME280;72081;48.870;11.074;2023-12-20T04:11:34;97095.75;;;1.92;100.00
82458;BME280;72081;48.870;11.074;2023-12-20T04:13:59;97105.41;;;1.99;100.00
82458;BME280;72081;48.870;11.074;2023-12-20T04:16:25;97103.31;;;1.95;100.00
82458;BME280;72081;48.870;11.074;2023-12-20T04:18:51;97106.75;;;1.95;100.00
82458;BME280;72081;48.870;11.074;2023-12-20T04:21:16;97102.63;;;1.93;100.00
82458;BME280;72081;48.870;11.074;2023-12-20T04:23:41;97102.81;;;1.91;100.00
82458;BME280;72081;48.870;11.074;2023-12-20T04:26:06;97096.16;;;2.03;100.00
82458;BME280;72081;48.870;11.074;2023-12-20T04:28:32;97095.06;;;1.98;100.00
82458;BME280;72081;48.870;11.074;2023-12-20T04:30:57;97101.31;;;1.97;100.00
82458;BME280;72081;48.870;11.074;2023-12-20T04:33:22;97106.03;;;2.01;100.00
82458;BME280;72081;48.870;11.074;2023-12-20T04:35:48;97113.03;;;2.09;100.00
82458;BME280;72081;48.870;11.074;2023-12-20T04:38:13;97107.41;;;2.12;100.00
82458;BME280;72081;48.870;11.074;2023-12-20T04:40:38;97112.84;;;2.10;100.00
82458;BME280;72081;48.870;11.074;2023-12-20T04:43:06;97115.03;;;2.07;100.00
82458;BME280;72081;48.870;11.074;2023-12-20T04:45:31;97117.91;;;2.12;100.00
82458;BME280;72081;48.870;11.074;2023-12-20T04:47:56;97120.41;;;2.13;100.00
82458;BME280;72081;48.870;11.074;2023-12-20T04:50:21;97123.13;;;2.20;100.00
82458;BME280;72081;48.870;11.074;2023-12-20T04:52:47;97125.13;;;2.18;100.00
82458;BME280;72081;48.870;11.074;2023-12-20T04:55:12;97122.22;;;2.13;100.00
82458;BME280;72081;48.870;11.074;2023-12-20T04:57:38;97121.41;;;2.12;100.00
82458;BME280;72081;48.870;11.074;2023-12-20T05:00:03;97127.56;;;2.20;100.00
82458;BME280;72081;48.870;11.074;2023-12-20T05:02:29;97123.50;;;2.17;100.00
82458;BME280;72081;48.870;11.074;2023-12-20T05:04:55;97122.94;;;2.22;100.00
82458;BME280;72081;48.870;11.074;2023-12-20T05:07:20;97130.66;;;2.23;100.00
82458;BME280;72081;48.870;11.074;2023-12-20T05:09:45;97127.47;;;2.28;100.00
82458;BME280;72081;48.870;11.074;2023-12-20T05:12:10;97125.03;;;2.26;100.00
82458;BME280;72081;48.870;11.074;2023-12-20T05:14:36;97126.78;;;2.34;100.00
82458;BME280;72081;48.870;11.074;2023-12-20T05:17:01;97128.59;;;2.33;100.00
82458;BME280;72081;48.870;11.074;2023-12-20T05:19:28;97129.94;;;2.29;100.00
82458;BME280;72081;48.870;11.074;2023-12-20T05:21:53;97134.56;;;2.27;100.00
82458;BME280;72081;48.870;11.074;2023-12-20T05:24:18;97146.38;;;2.31;100.00
82458;BME280;72081;48.870;11.074;2023-12-20T05:26:44;97152.00;;;2.28;100.00
82458;BME280;72081;48.870;11.074;2023-12-20T05:29:09;97153.81;;;2.28;100.00
82458;BME280;72081;48.870;11.074;2023-12-20T05:31:34;97151.00;;;2.29;100.00
82458;BME280;72081;48.870;11.074;2023-12-20T05:33:59;97166.47;;;2.32;100.00
82458;BME280;72081;48.870;11.074;2023-12-20T05:36:25;97164.72;;;2.39;100.00
82458;BME280;72081;48.870;11.074;2023-12-20T05:38:51;97172.63;;;2.39;100.00
82458;BME280;72081;48.870;11.074;2023-12-20T05:41:16;97181.63;;;2.45;100.00
82458;BME280;72081;48.870;11.074;2023-12-20T05:43:41;97186.69;;;2.47;100.00
82458;BME280;72081;48.870;11.074;2023-12-20T05:46:06;97183.06;;;2.48;100.00
82458;BME280;72081;48.870;11.074;2023-12-20T05:48:32;97183.81;;;2.41;100.00
82458;BME280;72081;48.870;11.074;2023-12-20T05:50:57;97186.44;;;2.41;100.00
82458;BME280;72081;48.870;11.074;2023-12-20T05:53:22;97187.97;;;2.36;100.00
82458;BME280;72081;48.870;11.074;2023-12-20T05:55:48;97189.16;;;2.33;100.00
82458;BME280;72081;48.870;11.074;2023-12-20T05:58:13;97176.50;;;2.29;100.00
82458;BME280;72081;48.870;11.074;2023-12-20T06:00:38;97175.69;;;2.28;100.00
82458;BME280;72081;48.870;11.074;2023-12-20T06:03:04;97189.22;;;2.25;100.00
82458;BME280;72081;48.870;11.074;2023-12-20T06:05:30;97192.94;;;2.31;100.00
82458;BME280;72081;48.870;11.074;2023-12-20T06:07:55;97201.84;;;2.30;100.00
82458;BME280;72081;48.870;11.074;2023-12-20T06:10:26;97202.66;;;2.30;100.00
82458;BME280;72081;48.870;11.074;2023-12-20T06:12:51;97205.81;;;2.26;100.00
82458;BME280;72081;48.870;11.074;2023-12-20T06:15:16;97204.81;;;2.27;100.00
82458;BME280;72081;48.870;11.074;2023-12-20T06:17:42;97207.09;;;2.30;100.00
82458;BME280;72081;48.870;11.074;2023-12-20T06:20:07;97207.75;;;2.32;100.00
82458;BME280;72081;48.870;11.074;2023-12-20T06:22:34;97222.06;;;2.29;100.00
82458;BME280;72081;48.870;11.074;2023-12-20T06:25:00;97229.16;;;2.29;100.00
82458;BME280;72081;48.870;11.074;2023-12-20T06:27:25;97228.34;;;2.28;100.00
82458;BME280;72081;48.870;11.074;2023-12-20T06:29:50;97225.44;;;2.23;100.00
82458;BME280;72081;48.870;11.074;2023-12-20T06:32:16;97230.97;;;2.28;100.00
82458;BME280;72081;48.870;11.074;2023-12-20T06:34:41;97231.34;;;2.25;100.00
82458;BME280;72081;48.870;11.074;2023-12-20T06:38:33;97234.78;;;2.26;100.00
82458;BME280;72081;48.870;11.074;2023-12-20T06:40:58;97231.50;;;2.24;100.00
82458;BME280;72081;48.870;11.074;2023-12-20T06:43:24;97233.31;;;2.23;100.00
82458;BME280;72081;48.870;11.074;2023-12-20T06:45:49;97238.22;;;2.26;100.00
82458;BME280;72081;48.870;11.074;2023-12-20T06:48:16;97236.59;;;2.25;100.00
82458;BME280;72081;48.870;11.074;2023-12-20T06:50:41;97246.31;;;2.25;100.00
82458;BME280;72081;48.870;11.074;2023-12-20T06:53:06;97240.88;;;2.26;100.00
82458;BME280;72081;48.870;11.074;2023-12-20T06:55:33;97250.41;;;2.27;100.00
82458;BME280;72081;48.870;11.074;2023-12-20T06:58:00;97249.94;;;2.24;100.00
82458;BME280;72081;48.870;11.074;2023-12-20T07:00:26;97254.84;;;2.27;100.00
82458;BME280;72081;48.870;11.074;2023-12-20T07:02:51;97265.03;;;2.30;100.00
82458;BME280;72081;48.870;11.074;2023-12-20T07:05:17;97259.75;;;2.30;100.00
82458;BME280;72081;48.870;11.074;2023-12-20T07:07:44;97259.94;;;2.28;100.00
82458;BME280;72081;48.870;11.074;2023-12-20T07:10:10;97267.38;;;2.25;100.00
82458;BME280;72081;48.870;11.074;2023-12-20T07:12:35;97268.66;;;2.29;100.00
82458;BME280;72081;48.870;11.074;2023-12-20T07:15:00;97269.28;;;2.31;100.00
82458;BME280;72081;48.870;11.074;2023-12-20T07:17:26;97270.09;;;2.31;100.00
82458;BME280;72081;48.870;11.074;2023-12-20T07:19:51;97273.09;;;2.28;100.00
82458;BME280;72081;48.870;11.074;2023-12-20T07:22:16;97273.91;;;2.29;100.00
82458;BME280;72081;48.870;11.074;2023-12-20T07:24:42;97285.09;;;2.31;100.00
82458;BME280;72081;48.870;11.074;2023-12-20T07:27:07;97290.53;;;2.29;100.00
82458;BME280;72081;48.870;11.074;2023-12-20T07:29:32;97289.84;;;2.35;100.00
82458;BME280;72081;48.870;11.074;2023-12-20T07:31:57;97293.94;;;2.38;100.00
82458;BME280;72081;48.870;11.074;2023-12-20T07:34:23;97295.13;;;2.35;100.00
82458;BME280;72081;48.870;11.074;2023-12-20T07:36:48;97301.19;;;2.36;100.00
82458;BME280;72081;48.870;11.074;2023-12-20T07:39:14;97302.38;;;2.33;100.00
82458;BME280;72081;48.870;11.074;2023-12-20T07:41:39;97308.78;;;2.31;100.00
82458;BME280;72081;48.870;11.074;2023-12-20T07:44:04;97312.41;;;2.30;100.00
82458;BME280;72081;48.870;11.074;2023-12-20T07:46:30;97306.16;;;2.31;100.00
82458;BME280;72081;48.870;11.074;2023-12-20T07:48:55;97313.81;;;2.40;100.00
82458;BME280;72081;48.870;11.074;2023-12-20T07:51:20;97300.66;;;2.40;100.00
82458;BME280;72081;48.870;11.074;2023-12-20T07:53:46;97313.81;;;2.40;100.00
82458;BME280;72081;48.870;11.074;2023-12-20T07:56:19;97312.00;;;2.41;100.00
82458;BME280;72081;48.870;11.074;2023-12-20T07:58:45;97307.38;;;2.43;100.00
82458;BME280;72081;48.870;11.074;2023-12-20T08:01:11;97303.75;;;2.44;100.00
82458;BME280;72081;48.870;11.074;2023-12-20T08:03:36;97303.75;;;2.44;100.00
82458;BME280;72081;48.870;11.074;2023-12-20T08:06:02;97311.47;;;2.46;100.00
82458;BME280;72081;48.870;11.074;2023-12-20T08:08:27;97319.03;;;2.49;100.00
82458;BME280;72081;48.870;11.074;2023-12-20T08:10:53;97335.31;;;2.52;100.00
82458;BME280;72081;48.870;11.074;2023-12-20T08:13:18;97326.06;;;2.56;100.00
82458;BME280;72081;48.870;11.074;2023-12-20T08:15:43;97323.78;;;2.53;100.00
82458;BME280;72081;48.870;11.074;2023-12-20T08:18:09;97323.59;;;2.55;100.00
82458;BME280;72081;48.870;11.074;2023-12-20T08:20:34;97322.44;;;2.57;100.00
82458;BME280;72081;48.870;11.074;2023-12-20T08:22:59;97333.41;;;2.61;100.00
82458;BME280;72081;48.870;11.074;2023-12-20T08:25:25;97334.88;;;2.63;100.00
82458;BME280;72081;48.870;11.074;2023-12-20T08:27:50;97330.59;;;2.62;100.00
82458;BME280;72081;48.870;11.074;2023-12-20T08:30:16;97317.91;;;2.66;100.00
82458;BME280;72081;48.870;11.074;2023-12-20T08:32:45;97325.44;;;2.69;100.00
82458;BME280;72081;48.870;11.074;2023-12-20T08:35:11;97321.16;;;2.68;100.00
82458;BME280;72081;48.870;11.074;2023-12-20T08:37:36;97330.19;;;2.73;100.00
82458;BME280;72081;48.870;11.074;2023-12-20T08:40:02;97320.84;;;2.71;100.00
82458;BME280;72081;48.870;11.074;2023-12-20T08:42:27;97321.66;;;2.71;100.00
82458;BME280;72081;48.870;11.074;2023-12-20T08:44:56;97317.22;;;2.72;100.00
82458;BME280;72081;48.870;11.074;2023-12-20T08:47:22;97318.47;;;2.76;100.00
82458;BME280;72081;48.870;11.074;2023-12-20T08:49:48;97313.50;;;2.81;100.00
82458;BME280;72081;48.870;11.074;2023-12-20T08:52:13;97318.56;;;2.83;100.00
82458;BME280;72081;48.870;11.074;2023-12-20T08:54:38;97318.56;;;2.83;100.00
82458;BME280;72081;48.870;11.074;2023-12-20T08:57:04;97319.03;;;2.86;100.00
82458;BME280;72081;48.870;11.074;2023-12-20T08:59:31;97313.59;;;2.88;100.00
82458;BME280;72081;48.870;11.074;2023-12-20T09:01:57;97310.63;;;2.91;100.00
82458;BME280;72081;48.870;11.074;2023-12-20T09:04:22;97310.25;;;2.94;100.00
82458;BME280;72081;48.870;11.074;2023-12-20T09:06:47;97300.06;;;2.91;100.00
82458;BME280;72081;48.870;11.074;2023-12-20T09:09:12;97299.97;;;2.99;100.00
82458;BME280;72081;48.870;11.074;2023-12-20T09:11:41;97305.25;;;2.99;100.00
82458;BME280;72081;48.870;11.074;2023-12-20T09:14:07;97304.06;;;3.01;100.00
82458;BME280;72081;48.870;11.074;2023-12-20T09:16:32;97303.34;;;3.08;100.00
82458;BME280;72081;48.870;11.074;2023-12-20T09:18:57;97309.44;;;3.08;100.00
82458;BME280;72081;48.870;11.074;2023-12-20T09:21:23;97310.91;;;3.11;100.00
82458;BME280;72081;48.870;11.074;2023-12-20T09:23:48;97309.28;;;3.10;100.00
82458;BME280;72081;48.870;11.074;2023-12-20T09:27:23;97312.72;;;3.10;100.00
82458;BME280;72081;48.870;11.074;2023-12-20T09:29:48;97292.47;;;3.11;100.00
82458;BME280;72081;48.870;11.074;2023-12-20T09:32:14;97296.53;;;3.13;100.00
82458;BME280;72081;48.870;11.074;2023-12-20T09:34:40;97308.72;;;3.14;100.00
82458;BME280;72081;48.870;11.074;2023-12-20T09:37:06;97303.63;;;3.13;100.00
82458;BME280;72081;48.870;11.074;2023-12-20T09:39:32;97311.38;;;3.14;100.00
82458;BME280;72081;48.870;11.074;2023-12-20T09:44:27;97308.25;;;3.25;100.00
82458;BME280;72081;48.870;11.074;2023-12-20T09:46:54;97322.38;;;3.32;100.00
82458;BME280;72081;48.870;11.074;2023-12-20T09:49:20;97325.91;;;3.40;100.00
82458;BME280;72081;48.870;11.074;2023-12-20T09:51:47;97318.81;;;3.40;100.00
82458;BME280;72081;48.870;11.074;2023-12-20T09:54:16;97316.38;;;3.39;100.00
82458;BME280;72081;48.870;11.074;2023-12-20T09:56:42;97329.28;;;3.33;100.00
82458;BME280;72081;48.870;11.074;2023-12-20T09:59:07;97319.09;;;3.30;100.00
82458;BME280;72081;48.870;11.074;2023-12-20T10:01:34;97322.75;;;3.29;100.00
82458;BME280;72081;48.870;11.074;2023-12-20T10:04:00;97335.56;;;3.32;100.00
82458;BME280;72081;48.870;11.074;2023-12-20T10:06:25;97320.56;;;3.33;100.00
82458;BME280;72081;48.870;11.074;2023-12-20T10:08:51;97328.09;;;3.36;100.00
82458;BME280;72081;48.870;11.074;2023-12-20T10:11:18;97322.81;;;3.36;100.00
82458;BME280;72081;48.870;11.074;2023-12-20T10:13:47;97332.28;;;3.30;100.00
82458;BME280;72081;48.870;11.074;2023-12-20T10:16:13;97338.63;;;3.21;100.00
82458;BME280;72081;48.870;11.074;2023-12-20T10:18:38;97331.63;;;3.14;100.00
82458;BME280;72081;48.870;11.074;2023-12-20T10:21:04;97332.69;;;3.04;100.00
82458;BME280;72081;48.870;11.074;2023-12-20T10:23:30;97349.50;;;3.03;100.00
82458;BME280;72081;48.870;11.074;2023-12-20T10:25:59;97350.06;;;2.99;100.00
82458;BME280;72081;48.870;11.074;2023-12-20T10:28:25;97340.69;;;2.96;99.74
82458;BME280;72081;48.870;11.074;2023-12-20T10:30:54;97337.44;;;2.94;99.22
82458;BME280;72081;48.870;11.074;2023-12-20T10:33:26;97344.34;;;2.95;100.00
82458;BME280;72081;48.870;11.074;2023-12-20T10:35:52;97345.25;;;3.02;99.84
82458;BME280;72081;48.870;11.074;2023-12-20T10:38:18;97337.09;;;3.12;100.00
82458;BME280;72081;48.870;11.074;2023-12-20T10:40:45;97316.63;;;3.14;98.98
82458;BME280;72081;48.870;11.074;2023-12-20T10:43:11;97314.19;;;3.13;98.52
82458;BME280;72081;48.870;11.074;2023-12-20T10:45:36;97312.91;;;3.09;98.80
82458;BME280;72081;48.870;11.074;2023-12-20T10:48:02;97317.19;;;3.10;98.66
82458;BME280;72081;48.870;11.074;2023-12-20T10:50:28;97318.81;;;3.11;98.34
82458;BME280;72081;48.870;11.074;2023-12-20T10:52:55;97318.63;;;3.12;97.94
82458;BME280;72081;48.870;11.074;2023-12-20T10:55:24;97323.56;;;3.30;97.74
82458;BME280;72081;48.870;11.074;2023-12-20T10:57:50;97330.91;;;3.34;97.03
82458;BME280;72081;48.870;11.074;2023-12-20T11:00:17;97323.47;;;3.53;98.27
82458;BME280;72081;48.870;11.074;2023-12-20T11:02:43;97318.72;;;3.63;98.66
82458;BME280;72081;48.870;11.074;2023-12-20T11:05:33;97316.25;;;3.61;96.02
82458;BME280;72081;48.870;11.074;2023-12-20T11:08:28;97306.63;;;3.69;97.33
82458;BME280;72081;48.870;11.074;2023-12-20T11:11:05;97309.16;;;3.62;96.83
82458;BME280;72081;48.870;11.074;2023-12-20T11:13:48;97311.59;;;3.63;96.72
82458;BME280;72081;48.870;11.074;2023-12-20T11:16:18;97301.16;;;3.70;97.51
82458;BME280;72081;48.870;11.074;2023-12-20T11:18:44;97291.41;;;3.71;96.93
82458;BME280;72081;48.870;11.074;2023-12-20T11:21:10;97289.03;;;3.76;94.20
82458;BME280;72081;48.870;11.074;2023-12-20T11:23:36;97300.06;;;3.64;95.85
82458;BME280;72081;48.870;11.074;2023-12-20T11:26:02;97297.25;;;3.51;94.83
82458;BME280;72081;48.870;11.074;2023-12-20T11:28:28;97291.19;;;3.51;94.33
82458;BME280;72081;48.870;11.074;2023-12-20T11:30:56;97301.63;;;3.44;94.59
82458;BME280;72081;48.870;11.074;2023-12-20T11:33:26;97304.38;;;3.36;94.30
82458;BME280;72081;48.870;11.074;2023-12-20T11:35:57;97303.72;;;3.34;94.58
82458;BME280;72081;48.870;11.074;2023-12-20T11:38:24;97292.53;;;3.32;93.08
82458;BME280;72081;48.870;11.074;2023-12-20T11:40:50;97301.09;;;3.49;93.14
82458;BME280;72081;48.870;11.074;2023-12-20T11:43:32;97297.84;;;3.83;90.58
82458;BME280;72081;48.870;11.074;2023-12-20T11:46:07;97295.31;;;3.75;90.95
82458;BME280;72081;48.870;11.074;2023-12-20T11:48:39;97289.25;;;3.59;91.40
82458;BME280;72081;48.870;11.074;2023-12-20T11:51:12;97297.25;;;3.51;89.87
82458;BME280;72081;48.870;11.074;2023-12-20T11:53:38;97293.53;;;3.46;90.37
82458;BME280;72081;48.870;11.074;2023-12-20T11:56:06;97288.44;;;3.44;90.85
82458;BME280;72081;48.870;11.074;2023-12-20T11:58:32;97282.97;;;3.46;91.25
82458;BME280;72081;48.870;11.074;2023-12-20T12:00:57;97285.72;;;3.52;91.79
82458;BME280;72081;48.870;11.074;2023-12-20T12:03:23;97282.69;;;3.55;91.70
82458;BME280;72081;48.870;11.074;2023-12-20T12:05:49;97288.78;;;3.56;91.36
82458;BME280;72081;48.870;11.074;2023-12-20T12:08:15;97281.06;;;3.54;91.28
82458;BME280;72081;48.870;11.074;2023-12-20T12:10:40;97287.59;;;3.58;91.85
82458;BME280;72081;48.870;11.074;2023-12-20T12:13:06;97289.44;;;3.58;91.85
82458;BME280;72081;48.870;11.074;2023-12-20T12:16:17;97283.06;;;3.52;90.38
82458;BME280;72081;48.870;11.074;2023-12-20T12:18:44;97281.81;;;3.48;91.11
82458;BME280;72081;48.870;11.074;2023-12-20T12:21:09;97282.34;;;3.44;91.61
82458;BME280;72081;48.870;11.074;2023-12-20T12:23:34;97283.53;;;3.41;91.60
82458;BME280;72081;48.870;11.074;2023-12-20T12:26:03;97273.53;;;3.37;91.18
82458;BME280;72081;48.870;11.074;2023-12-20T12:28:29;97273.09;;;3.33;91.77
82458;BME280;72081;48.870;11.074;2023-12-20T12:30:59;97270.63;;;3.31;92.64
82458;BME280;72081;48.870;11.074;2023-12-20T12:33:25;97274.47;;;3.29;93.14
82458;BME280;72081;48.870;11.074;2023-12-20T12:35:51;97275.91;;;3.31;92.79
82458;BME280;72081;48.870;11.074;2023-12-20T12:38:20;97268.00;;;3.31;91.91
82458;BME280;72081;48.870;11.074;2023-12-20T12:40:46;97271.81;;;3.29;91.10
82458;BME280;72081;48.870;11.074;2023-12-20T12:43:11;97264.53;;;3.31;92.20
82458;BME280;72081;48.870;11.074;2023-12-20T12:45:37;97267.38;;;3.29;91.76
82458;BME280;72081;48.870;11.074;2023-12-20T12:48:03;97275.09;;;3.31;90.75
82458;BME280;72081;48.870;11.074;2023-12-20T12:50:28;97263.34;;;3.33;90.84
82458;BME280;72081;48.870;11.074;2023-12-20T12:52:53;97268.63;;;3.33;91.10
82458;BME280;72081;48.870;11.074;2023-12-20T12:55:19;97266.81;;;3.34;90.48